Mijn Webcam Meer informatie Mijn Webcam


webcam richting noord-oost Meer informatie webcam facing north-east


Regen radar Meer informatie rain snow radar


Bezoek onze andere website:

Template documentation
and downloads

And another site


CBI



METAR rapporten vliegvelden

   
EHGG - Groningen/Eelde
Gewijzigd: 25-02-2018 13:55
Helder  
Helder  
   Wind: Oosten 5,7 m/s
Wind: Oosten 5,7 m/s
Temperatuur: 0°C
Voelt als: -5°C
Dauwpunt: -10°C
Vochtigheid: 47%
Barometer: 1033 hPa
Bewolking: Helder
Zicht: More then 10 km
Bewolking: Helder
EHGG 251255Z AUTO 09011KT 050V140 9999 NCD 00/M10 Q1033 NOSIG
EHMA - Schiermonnikoog
Gewijzigd: 25-02-2018 13:55
Gedeeltelijk bewolkt  
Gedeeltelijk bewolkt  
   Wind: varieert 5,1 m/s
Wind: varieert 5,1 m/s
Temperatuur: -1°C
Voelt als: -6°C
Dauwpunt: -8°C
Vochtigheid: 59%
Barometer: 1033 hPa
Bewolking: Gedeeltelijk bewolkt
Zicht: More then 10 km
Bewolking: Gedeeltelijk bewolkt
EHMA 251255Z AUTO VRB10KT 9999 NSC M01/M08 Q1033 W///H///
EHMG - Terschelling
Gewijzigd: 25-02-2018 13:55
Gedeeltelijk bewolkt  
Gedeeltelijk bewolkt  
   Wind: Oosten 8,2 m/s
Wind: Oosten 8,2 m/s
Temperatuur: 0°C
Voelt als: -7°C
Dauwpunt: -8°C
Vochtigheid: 55%
Barometer: 1033 hPa
Bewolking: Gedeeltelijk bewolkt
Zicht: More then 10 km
Bewolking: Gedeeltelijk bewolkt
EHMG 251255Z AUTO 09016KT 9999 NSC M00/M08 Q1033 W///H///
EHVL - Vlieland
Gewijzigd: 25-02-2018 13:55
Gedeeltelijk bewolkt  
Gedeeltelijk bewolkt  
   Wind: Oosten 7,7 m/s
Wind: Oosten 7,7 m/s
Temperatuur: 0°C
Voelt als: -6°C
Dauwpunt: -9°C
Vochtigheid: 51%
Barometer: 1033 hPa
Bewolking: Gedeeltelijk bewolkt
Zicht: More then 10 km
Bewolking: Gedeeltelijk bewolkt 2712,7 m
EHVL 251255Z AUTO 08015KT 9999 SCT089 M00/M09 Q1033 BLU
ETWM - Meppen, Germany
Gewijzigd: 25-02-2018 13:20
  
  
   Wind: ONO 5,1 m/s
Wind: ONO 5,1 m/s
Temperatuur: -1°C
Voelt als: -6°C
Dauwpunt: -11°C
Vochtigheid: 47%
Barometer: 1033 hPa
Zicht: More then 10 km
ETWM 251220Z AUTO 07010KT 9999 // ////// M01/M11 Q1033 ///
 

Script ontwikkeld door  Saratoga-weather.org Aangepast voor de template door  Weerstation Leuven

U vindt ons ook hier:

Het Weer Aktueel

UK Metoffice

European Weather Network

WeatherCloud

Weather Underground

Benelux Weer Netwerk

AWEKAS

WeatherlinkIP

HAMweather, WeatherForYou, PWS Weather

Apparatuur in gebruik:

Weerstation
Davis VP2 Plus

Weerprogramma
Cumulus

Weercomputer
ASUS Eee Box B202

Webleverancier
Antagonist

Davis VP2 Plus

Cumulus

ASUS Eee Box B202

Antagonist